Back to Top

Language: 

My Weather Underground Personal Weather Station Historical Data with Graphs...

Delerius Weather Station Historical Data
Daily Summary for November 22, 2017 Units:  English    Metric   Both
« Previous Day
Next Day »
Daily Weekly Monthly Yearly Custom
  High: Low: Average:
Temperature: 59.9 °F 55.4 °F 57.1 °F
Dew Point: 54.8 °F 51.3 °F 52.6 °F
Humidity: 95 % 78 % 85 %
Wind Speed: 28.0 mph 4.0 mph 15.5 mph
Wind Gust: 47.0 mph - -
Wind:- - SSW
Pressure: 29.45 in 28.88 in -
Precipitation: 0.06 in    
Historical Graphs
 
 
Tabular Data for November 22, 2017
Time Temperature Dew Point Pressure Wind Wind Speed Wind Gust Humidity Rainfall Rate (Hourly) solar Conditions
00:03 57.7 °F 53.9 °F 29.45 in WSW 15.0 mph 22.0 mph 87 % 0.00 in 0 W/m2
00:09 57.7 °F 53.9 °F 29.45 in WSW 15.0 mph 23.0 mph 87 % 0.00 in 0 W/m2
00:14 57.6 °F 53.7 °F 29.45 in WSW 11.0 mph 15.0 mph 87 % 0.00 in 0 W/m2
00:19 57.6 °F 53.7 °F 29.45 in WSW 14.0 mph 21.0 mph 87 % 0.00 in 0 W/m2
00:24 57.6 °F 53.7 °F 29.44 in WSW 13.0 mph 21.0 mph 87 % 0.00 in 0 W/m2
00:29 57.4 °F 53.5 °F 29.44 in WSW 11.0 mph 20.0 mph 87 % 0.00 in 0 W/m2
00:34 57.4 °F 53.9 °F 29.44 in WSW 12.0 mph 16.0 mph 88 % 0.00 in 0 W/m2
00:39 57.2 °F 53.7 °F 29.43 in WSW 11.0 mph 21.0 mph 88 % 0.00 in 0 W/m2
00:44 57.2 °F 53.7 °F 29.43 in WSW 13.0 mph 21.0 mph 88 % 0.00 in 0 W/m2
00:49 57.2 °F 53.7 °F 29.43 in WSW 11.0 mph 21.0 mph 88 % 0.00 in 0 W/m2
00:54 57.2 °F 53.7 °F 29.43 in WSW 12.0 mph 22.0 mph 88 % 0.00 in 0 W/m2
01:04 57.4 °F 53.5 °F 29.43 in WSW 13.0 mph 19.0 mph 87 % 0.00 in 0 W/m2
01:09 57.4 °F 53.5 °F 29.42 in WSW 9.0 mph 14.0 mph 87 % 0.00 in 0 W/m2
01:14 57.4 °F 53.5 °F 29.42 in WSW 11.0 mph 20.0 mph 87 % 0.00 in 0 W/m2
01:19 57.4 °F 53.2 °F 29.42 in WSW 10.0 mph 19.0 mph 86 % 0.00 in 0 W/m2
01:24 57.4 °F 53.2 °F 29.42 in WSW 10.0 mph 16.0 mph 86 % 0.00 in 0 W/m2
01:29 57.4 °F 53.2 °F 29.42 in SW 12.0 mph 16.0 mph 86 % 0.00 in 0 W/m2
01:34 57.4 °F 53.2 °F 29.43 in SW 9.0 mph 14.0 mph 86 % 0.00 in 0 W/m2
01:39 57.4 °F 53.5 °F 29.43 in SW 10.0 mph 15.0 mph 87 % 0.00 in 0 W/m2
01:44 57.4 °F 53.5 °F 29.42 in SW 8.0 mph 13.0 mph 87 % 0.00 in 0 W/m2
01:50 57.4 °F 53.5 °F 29.42 in SW 12.0 mph 15.0 mph 87 % 0.00 in 0 W/m2
01:55 57.4 °F 53.5 °F 29.42 in WSW 10.0 mph 14.0 mph 87 % 0.00 in 0 W/m2
02:00 57.4 °F 53.5 °F 29.42 in SW 12.0 mph 16.0 mph 87 % 0.00 in 0 W/m2
02:10 57.4 °F 53.2 °F 29.41 in SW 12.0 mph 18.0 mph 86 % 0.00 in 0 W/m2
02:15 57.2 °F 53.0 °F 29.41 in SW 11.0 mph 20.0 mph 86 % 0.00 in 0 W/m2
02:25 56.8 °F 53.0 °F 29.41 in SW 11.0 mph 15.0 mph 87 % 0.00 in 0 W/m2
02:30 56.8 °F 53.0 °F 29.41 in SW 12.0 mph 18.0 mph 87 % 0.00 in 0 W/m2
02:35 56.8 °F 53.0 °F 29.40 in SW 11.0 mph 16.0 mph 87 % 0.00 in 0 W/m2
02:40 56.8 °F 53.0 °F 29.41 in SW 11.0 mph 19.0 mph 87 % 0.00 in 0 W/m2
02:45 56.8 °F 53.0 °F 29.40 in SW 12.0 mph 16.0 mph 87 % 0.00 in 0 W/m2
02:55 56.7 °F 52.8 °F 29.39 in SW 11.0 mph 14.0 mph 87 % 0.00 in 0 W/m2
03:00 56.7 °F 52.8 °F 29.39 in SW 9.0 mph 15.0 mph 87 % 0.00 in 0 W/m2
03:10 56.5 °F 53.0 °F 29.38 in SW 10.0 mph 16.0 mph 88 % 0.00 in 0 W/m2
03:15 56.5 °F 53.0 °F 29.39 in SW 12.0 mph 19.0 mph 88 % 0.00 in 0 W/m2
03:23 56.3 °F 53.1 °F 29.39 in SW 12.0 mph 20.0 mph 89 % 0.00 in 0 W/m2
03:30 56.3 °F 53.1 °F 29.38 in SW 10.0 mph 16.0 mph 89 % 0.00 in 0 W/m2
03:38 56.3 °F 53.1 °F 29.38 in SW 12.0 mph 16.0 mph 89 % 0.00 in 0 W/m2
03:43 56.1 °F 53.2 °F 29.38 in SW 8.0 mph 11.0 mph 90 % 0.00 in 0 W/m2
03:53 55.9 °F 53.4 °F 29.38 in SSW 4.0 mph 7.0 mph 91 % 0.01 in 0 W/m2
03:58 55.8 °F 53.2 °F 29.37 in SSW 4.0 mph 7.0 mph 91 % 0.01 in 0 W/m2
04:03 55.8 °F 53.5 °F 29.37 in SSW 5.0 mph 8.0 mph 92 % 0.02 in 0 W/m2
04:08 55.6 °F 53.3 °F 29.37 in SSW 7.0 mph 10.0 mph 92 % 0.02 in 0 W/m2
04:18 55.6 °F 53.6 °F 29.36 in SSW 6.0 mph 10.0 mph 93 % 0.02 in 0 W/m2
04:28 55.6 °F 53.9 °F 29.36 in SSW 6.0 mph 12.0 mph 94 % 0.02 in 0 W/m2
04:43 55.6 °F 53.9 °F 29.36 in SW 8.0 mph 14.0 mph 94 % 0.03 in 0 W/m2
04:48 55.8 °F 54.3 °F 29.36 in SW 9.0 mph 13.0 mph 95 % 0.03 in 0 W/m2
04:53 55.8 °F 54.3 °F 29.35 in SW 8.0 mph 14.0 mph 95 % 0.02 in 0 W/m2
04:58 55.9 °F 54.5 °F 29.35 in SW 10.0 mph 16.0 mph 95 % 0.02 in 0 W/m2
05:03 56.1 °F 54.4 °F 29.35 in SW 11.0 mph 20.0 mph 94 % 0.02 in 0 W/m2
05:08 56.3 °F 54.6 °F 29.36 in SW 10.0 mph 18.0 mph 94 % 0.02 in 0 W/m2
05:13 56.5 °F 54.8 °F 29.35 in SW 10.0 mph 16.0 mph 94 % 0.02 in 0 W/m2
05:18 56.5 °F 54.5 °F 29.35 in SW 12.0 mph 19.0 mph 93 % 0.01 in 0 W/m2
05:23 56.5 °F 54.5 °F 29.35 in SW 12.0 mph 22.0 mph 93 % 0.01 in 0 W/m2
05:38 56.8 °F 54.2 °F 29.34 in SW 11.0 mph 18.0 mph 91 % 0.00 in 0 W/m2
05:43 57.0 °F 53.8 °F 29.34 in SW 15.0 mph 23.0 mph 89 % 0.00 in 0 W/m2
05:48 57.2 °F 53.7 °F 29.34 in SSW 13.0 mph 24.0 mph 88 % 0.00 in 0 W/m2
05:53 57.2 °F 53.7 °F 29.34 in SSW 12.0 mph 18.0 mph 88 % 0.00 in 0 W/m2
06:03 57.0 °F 52.9 °F 29.34 in SW 13.0 mph 21.0 mph 86 % 0.00 in 0 W/m2
06:18 56.8 °F 52.4 °F 29.33 in SW 12.0 mph 21.0 mph 85 % 0.00 in 0 W/m2
06:28 56.7 °F 52.2 °F 29.33 in SW 10.0 mph 14.0 mph 85 % 0.00 in 0 W/m2
06:33 56.5 °F 52.0 °F 29.32 in SSW 11.0 mph 16.0 mph 85 % 0.00 in 0 W/m2
06:38 56.5 °F 52.0 °F 29.32 in SW 12.0 mph 21.0 mph 85 % 0.00 in 0 W/m2
06:43 56.5 °F 51.7 °F 29.32 in SW 14.0 mph 19.0 mph 84 % 0.00 in 0 W/m2
06:48 56.5 °F 51.7 °F 29.32 in SW 11.0 mph 20.0 mph 84 % 0.00 in 0 W/m2
06:53 56.5 °F 51.7 °F 29.32 in SSW 11.0 mph 18.0 mph 84 % 0.00 in 0 W/m2
07:03 56.5 °F 51.7 °F 29.32 in SW 10.0 mph 14.0 mph 84 % 0.00 in 0 W/m2
07:08 56.5 °F 51.7 °F 29.32 in SW 11.0 mph 16.0 mph 84 % 0.00 in 0 W/m2
07:18 56.5 °F 51.7 °F 29.31 in SW 13.0 mph 21.0 mph 84 % 0.00 in 0 W/m2
07:23 56.5 °F 51.7 °F 29.31 in SW 9.0 mph 13.0 mph 84 % 0.00 in 0 W/m2
07:28 56.5 °F 51.7 °F 29.30 in SSW 11.0 mph 15.0 mph 84 % 0.00 in 0 W/m2
07:33 56.5 °F 51.7 °F 29.30 in SSW 12.0 mph 19.0 mph 84 % 0.00 in 0 W/m2
07:38 56.5 °F 51.7 °F 29.30 in SW 9.0 mph 14.0 mph 84 % 0.00 in 0 W/m2
07:48 56.5 °F 51.7 °F 29.30 in SSW 10.0 mph 15.0 mph 84 % 0.00 in 0 W/m2
08:08 56.5 °F 51.7 °F 29.29 in SSW 12.0 mph 18.0 mph 84 % 0.00 in 5 W/m2
08:18 56.5 °F 51.7 °F 29.29 in SW 12.0 mph 21.0 mph 84 % 0.00 in 11 W/m2
08:23 56.3 °F 51.5 °F 29.29 in SSW 13.0 mph 22.0 mph 84 % 0.00 in 7 W/m2
08:28 56.3 °F 51.5 °F 29.28 in SSW 12.0 mph 21.0 mph 84 % 0.00 in 5 W/m2
08:34 56.1 °F 51.4 °F 29.28 in SSW 13.0 mph 19.0 mph 84 % 0.00 in 11 W/m2
08:39 56.1 °F 51.4 °F 29.28 in SSW 10.0 mph 15.0 mph 84 % 0.00 in 7 W/m2
08:44 56.1 °F 51.7 °F 29.28 in SSW 16.0 mph 25.0 mph 85 % 0.00 in 9 W/m2
08:49 56.1 °F 51.7 °F 29.28 in SSW 15.0 mph 26.0 mph 85 % 0.00 in 7 W/m2
08:54 56.1 °F 51.7 °F 29.28 in SSW 11.0 mph 16.0 mph 85 % 0.00 in 12 W/m2
08:59 56.1 °F 51.7 °F 29.28 in SSW 10.0 mph 16.0 mph 85 % 0.00 in 9 W/m2
09:04 56.1 °F 51.7 °F 29.27 in SSW 14.0 mph 24.0 mph 85 % 0.00 in 7 W/m2
09:09 56.1 °F 51.7 °F 29.28 in SSW 17.0 mph 27.0 mph 85 % 0.00 in 9 W/m2
09:14 56.1 °F 51.7 °F 29.27 in SSW 12.0 mph 21.0 mph 85 % 0.00 in 7 W/m2
09:19 56.1 °F 51.7 °F 29.28 in SSW 11.0 mph 19.0 mph 85 % 0.00 in 7 W/m2
09:29 55.9 °F 51.8 °F 29.27 in SSW 12.0 mph 19.0 mph 86 % 0.00 in 11 W/m2
09:34 56.1 °F 52.0 °F 29.27 in SSW 13.0 mph 21.0 mph 86 % 0.00 in 11 W/m2
09:44 56.1 °F 51.7 °F 29.27 in SSW 10.0 mph 19.0 mph 85 % 0.00 in 16 W/m2
09:49 56.3 °F 51.8 °F 29.27 in SSW 14.0 mph 22.0 mph 85 % 0.00 in 19 W/m2
10:09 57.0 °F 52.2 °F 29.27 in SSW 15.0 mph 24.0 mph 84 % 0.00 in 14 W/m2
10:29 57.0 °F 52.2 °F 29.26 in SSW 13.0 mph 21.0 mph 84 % 0.00 in 11 W/m2
10:44 57.4 °F 52.3 °F 29.26 in SSW 13.0 mph 20.0 mph 83 % 0.00 in 18 W/m2
10:49 57.4 °F 52.3 °F 29.26 in SSW 18.0 mph 26.0 mph 83 % 0.00 in 21 W/m2
10:54 57.4 °F 52.3 °F 29.25 in SSW 16.0 mph 28.0 mph 83 % 0.00 in 32 W/m2
10:59 57.4 °F 52.3 °F 29.24 in SSW 18.0 mph 26.0 mph 83 % 0.00 in 46 W/m2
11:04 57.6 °F 52.1 °F 29.24 in SSW 17.0 mph 27.0 mph 82 % 0.00 in 51 W/m2
11:19 57.7 °F 51.9 °F 29.23 in SSW 15.0 mph 26.0 mph 81 % 0.00 in 23 W/m2
11:29 57.7 °F 51.9 °F 29.22 in SSW 16.0 mph 31.0 mph 81 % 0.00 in 21 W/m2
11:34 57.7 °F 51.9 °F 29.22 in SSW 14.0 mph 22.0 mph 81 % 0.00 in 16 W/m2
11:44 57.7 °F 51.9 °F 29.23 in SSW 9.0 mph 18.0 mph 81 % 0.00 in 18 W/m2
11:49 57.7 °F 51.9 °F 29.22 in SSW 12.0 mph 21.0 mph 81 % 0.00 in 14 W/m2
11:54 57.7 °F 51.9 °F 29.21 in SW 13.0 mph 22.0 mph 81 % 0.00 in 67 W/m2
12:04 57.9 °F 52.1 °F 29.20 in SSW 12.0 mph 18.0 mph 81 % 0.00 in 95 W/m2
12:09 58.1 °F 52.3 °F 29.19 in South 11.0 mph 19.0 mph 81 % 0.00 in 83 W/m2
12:14 58.3 °F 52.1 °F 29.19 in South 12.0 mph 21.0 mph 80 % 0.00 in 77 W/m2
12:24 58.5 °F 52.3 °F 29.18 in South 14.0 mph 25.0 mph 80 % 0.00 in 46 W/m2
12:29 58.5 °F 52.3 °F 29.17 in South 11.0 mph 20.0 mph 80 % 0.00 in 35 W/m2
12:34 58.5 °F 52.3 °F 29.17 in South 13.0 mph 25.0 mph 80 % 0.00 in 21 W/m2
12:44 58.3 °F 52.5 °F 29.16 in South 16.0 mph 25.0 mph 81 % 0.00 in 26 W/m2
12:49 58.3 °F 52.5 °F 29.16 in SSE 12.0 mph 28.0 mph 81 % 0.00 in 35 W/m2
12:59 58.3 °F 52.5 °F 29.15 in South 14.0 mph 24.0 mph 81 % 0.00 in 54 W/m2
13:07 58.5 °F 52.6 °F 29.15 in SSW 10.0 mph 18.0 mph 81 % 0.00 in 72 W/m2
13:12 58.5 °F 52.3 °F 29.14 in SSW 11.0 mph 23.0 mph 80 % 0.00 in 67 W/m2
13:19 58.5 °F 52.3 °F 29.14 in South 13.0 mph 20.0 mph 80 % 0.00 in 51 W/m2
13:29 58.5 °F 52.3 °F 29.14 in South 11.0 mph 19.0 mph 80 % 0.00 in 42 W/m2
13:39 58.8 °F 52.7 °F 29.12 in SSW 19.0 mph 29.0 mph 80 % 0.00 in 98 W/m2
13:49 59.2 °F 52.7 °F 29.12 in SSW 18.0 mph 33.0 mph 79 % 0.00 in 37 W/m2
13:54 59.2 °F 52.7 °F 29.12 in SSW 15.0 mph 24.0 mph 79 % 0.00 in 51 W/m2
14:04 59.2 °F 52.7 °F 29.12 in SSW 18.0 mph 26.0 mph 79 % 0.00 in 47 W/m2
14:14 59.2 °F 52.7 °F 29.10 in SSW 14.0 mph 23.0 mph 79 % 0.00 in 46 W/m2
14:19 59.4 °F 52.8 °F 29.11 in SSW 16.0 mph 29.0 mph 79 % 0.00 in 42 W/m2
14:24 59.4 °F 52.8 °F 29.11 in SSW 18.0 mph 31.0 mph 79 % 0.00 in 40 W/m2
14:29 59.5 °F 53.0 °F 29.10 in SSW 22.0 mph 35.0 mph 79 % 0.00 in 44 W/m2
14:34 59.7 °F 52.8 °F 29.10 in SSW 20.0 mph 35.0 mph 78 % 0.00 in 32 W/m2
14:46 59.9 °F 53.0 °F 29.09 in SSW 18.0 mph 31.0 mph 78 % 0.00 in 26 W/m2
14:51 59.9 °F 53.0 °F 29.10 in SSW 21.0 mph 35.0 mph 78 % 0.00 in 21 W/m2
14:56 59.7 °F 52.8 °F 29.09 in SSW 24.0 mph 33.0 mph 78 % 0.00 in 21 W/m2
15:06 59.7 °F 52.8 °F 29.09 in SSW 21.0 mph 33.0 mph 78 % 0.00 in 19 W/m2
15:11 59.7 °F 53.2 °F 29.09 in SSW 26.0 mph 39.0 mph 79 % 0.00 in 14 W/m2
15:16 59.5 °F 53.0 °F 29.08 in SW 22.0 mph 34.0 mph 79 % 0.00 in 26 W/m2
15:21 59.5 °F 53.0 °F 29.08 in SSW 23.0 mph 40.0 mph 79 % 0.00 in 23 W/m2
15:26 59.5 °F 53.0 °F 29.07 in SSW 20.0 mph 28.0 mph 79 % 0.00 in 16 W/m2
15:31 59.5 °F 53.0 °F 29.07 in SW 19.0 mph 32.0 mph 79 % 0.00 in 5 W/m2
16:01 59.0 °F 52.8 °F 29.06 in SSW 20.0 mph 34.0 mph 80 % 0.00 in 0 W/m2
16:06 59.0 °F 52.8 °F 29.06 in SSW 23.0 mph 35.0 mph 80 % 0.00 in 0 W/m2
16:13 59.0 °F 53.2 °F 29.06 in SSW 19.0 mph 33.0 mph 81 % 0.00 in 0 W/m2
16:18 59.0 °F 53.2 °F 29.06 in SSW 22.0 mph 32.0 mph 81 % 0.00 in 0 W/m2
16:23 59.2 °F 53.0 °F 29.05 in SSW 20.0 mph 26.0 mph 80 % 0.00 in 0 W/m2
16:28 59.2 °F 53.0 °F 29.05 in SSW 23.0 mph 41.0 mph 80 % 0.00 in 0 W/m2
16:29 59.2 °F 53.0 °F 29.05 in SSW 25.0 mph 41.0 mph 80 % 0.00 in 0 W/m2
16:34 59.2 °F 53.0 °F 29.05 in SSW 20.0 mph 33.0 mph 80 % 0.00 in 0 W/m2
16:39 59.2 °F 53.0 °F 29.05 in SSW 19.0 mph 33.0 mph 80 % 0.00 in 0 W/m2
16:44 59.2 °F 53.0 °F 29.04 in SSW 24.0 mph 42.0 mph 80 % 0.00 in 0 W/m2
16:54 59.4 °F 53.2 °F 29.05 in SSW 22.0 mph 38.0 mph 80 % 0.00 in 0 W/m2
16:59 59.4 °F 52.8 °F 29.05 in SSW 25.0 mph 43.0 mph 79 % 0.00 in 0 W/m2
17:04 59.4 °F 53.2 °F 29.04 in SSW 21.0 mph 30.0 mph 80 % 0.00 in 0 W/m2
17:09 58.8 °F 53.3 °F 29.04 in SSW 21.0 mph 31.0 mph 82 % 0.00 in 0 W/m2
17:19 57.9 °F 53.8 °F 29.03 in SSW 17.0 mph 26.0 mph 86 % 0.00 in 0 W/m2
17:34 57.0 °F 53.5 °F 29.02 in SSW 21.0 mph 38.0 mph 88 % 0.01 in 0 W/m2
17:39 56.8 °F 53.6 °F 29.02 in SSW 20.0 mph 39.0 mph 89 % 0.01 in 0 W/m2
17:44 56.8 °F 53.6 °F 29.01 in SSW 15.0 mph 25.0 mph 89 % 0.01 in 0 W/m2
17:54 56.7 °F 53.8 °F 29.01 in SSW 19.0 mph 29.0 mph 90 % 0.02 in 0 W/m2
17:59 56.7 °F 53.8 °F 29.01 in SSW 20.0 mph 32.0 mph 90 % 0.02 in 0 W/m2
18:04 56.7 °F 53.8 °F 29.01 in SSW 23.0 mph 40.0 mph 90 % 0.02 in 0 W/m2
18:19 56.5 °F 53.3 °F 29.00 in SSW 16.0 mph 26.0 mph 89 % 0.02 in 0 W/m2
18:24 56.7 °F 53.1 °F 29.00 in SSW 21.0 mph 31.0 mph 88 % 0.01 in 0 W/m2
18:29 56.8 °F 53.0 °F 29.00 in SSW 22.0 mph 43.0 mph 87 % 0.01 in 0 W/m2
18:34 56.8 °F 52.7 °F 29.00 in SSW 19.0 mph 31.0 mph 86 % 0.01 in 0 W/m2
18:39 56.8 °F 52.7 °F 29.00 in SSW 24.0 mph 35.0 mph 86 % 0.01 in 0 W/m2
18:49 56.3 °F 52.5 °F 28.99 in SSW 20.0 mph 33.0 mph 87 % 0.01 in 0 W/m2
18:54 55.9 °F 52.1 °F 28.99 in SSW 19.0 mph 29.0 mph 87 % 0.00 in 0 W/m2
19:04 55.4 °F 52.2 °F 28.99 in SSW 20.0 mph 38.0 mph 89 % 0.01 in 0 W/m2
19:09 55.6 °F 52.1 °F 28.98 in SW 22.0 mph 32.0 mph 88 % 0.01 in 0 W/m2
19:14 55.6 °F 51.8 °F 28.97 in SSW 20.0 mph 32.0 mph 87 % 0.01 in 0 W/m2
19:19 55.8 °F 51.9 °F 28.97 in SSW 21.0 mph 41.0 mph 87 % 0.01 in 0 W/m2
19:24 55.8 °F 51.6 °F 28.97 in SSW 23.0 mph 34.0 mph 86 % 0.01 in 0 W/m2
19:29 55.9 °F 51.8 °F 28.97 in SSW 18.0 mph 33.0 mph 86 % 0.01 in 0 W/m2
19:34 55.9 °F 51.5 °F 28.97 in SSW 20.0 mph 34.0 mph 85 % 0.01 in 0 W/m2
19:44 55.9 °F 51.5 °F 28.96 in SSW 23.0 mph 32.0 mph 85 % 0.01 in 0 W/m2
19:49 56.1 °F 51.7 °F 28.96 in SSW 17.0 mph 27.0 mph 85 % 0.01 in 0 W/m2
19:54 56.1 °F 51.7 °F 28.96 in SSW 20.0 mph 30.0 mph 85 % 0.00 in 0 W/m2
19:59 56.3 °F 51.5 °F 28.97 in SSW 22.0 mph 33.0 mph 84 % 0.00 in 0 W/m2
20:24 56.7 °F 51.6 °F 28.96 in SSW 19.0 mph 31.0 mph 83 % 0.00 in 0 W/m2
20:29 56.7 °F 51.6 °F 28.96 in SSW 23.0 mph 33.0 mph 83 % 0.00 in 0 W/m2
20:34 56.7 °F 51.9 °F 28.95 in SSW 19.0 mph 28.0 mph 84 % 0.00 in 0 W/m2
20:39 56.5 °F 52.0 °F 28.96 in SSW 18.0 mph 28.0 mph 85 % 0.00 in 0 W/m2
20:44 56.5 °F 52.0 °F 28.95 in SW 20.0 mph 40.0 mph 85 % 0.00 in 0 W/m2
20:49 56.3 °F 51.8 °F 28.95 in SW 16.0 mph 27.0 mph 85 % 0.00 in 0 W/m2
20:54 56.3 °F 51.8 °F 28.95 in SSW 15.0 mph 23.0 mph 85 % 0.00 in 0 W/m2
20:55 56.3 °F 51.8 °F 28.95 in SSW 15.0 mph 23.0 mph 85 % 0.00 in 0 W/m2
21:00 56.1 °F 52.0 °F 28.94 in SSW 19.0 mph 27.0 mph 86 % 0.00 in 0 W/m2
21:11 55.9 °F 52.1 °F 28.95 in SSW 17.0 mph 26.0 mph 87 % 0.00 in 0 W/m2
21:16 55.9 °F 52.1 °F 28.95 in SSW 16.0 mph 24.0 mph 87 % 0.00 in 0 W/m2
21:26 55.9 °F 52.1 °F 28.94 in SSW 17.0 mph 34.0 mph 87 % 0.00 in 0 W/m2
21:27 55.9 °F 52.1 °F 28.94 in SW 19.0 mph 34.0 mph 87 % 0.00 in 0 W/m2
21:32 55.8 °F 52.3 °F 28.94 in SSW 17.0 mph 25.0 mph 88 % 0.00 in 0 W/m2
21:37 55.8 °F 52.3 °F 28.93 in SSW 19.0 mph 30.0 mph 88 % 0.00 in 0 W/m2
21:42 55.8 °F 52.6 °F 28.93 in SSW 21.0 mph 34.0 mph 89 % 0.00 in 0 W/m2
21:47 55.4 °F 52.2 °F 28.93 in SSW 17.0 mph 24.0 mph 89 % 0.00 in 0 W/m2
21:52 55.6 °F 52.4 °F 28.92 in SSW 18.0 mph 27.0 mph 89 % 0.00 in 0 W/m2
21:57 55.8 °F 52.3 °F 28.92 in SSW 20.0 mph 32.0 mph 88 % 0.00 in 0 W/m2
22:02 55.9 °F 52.1 °F 28.92 in SSW 19.0 mph 30.0 mph 87 % 0.00 in 0 W/m2
22:07 55.9 °F 52.4 °F 28.92 in SSW 16.0 mph 30.0 mph 88 % 0.00 in 0 W/m2
22:12 55.9 °F 52.1 °F 28.91 in SW 19.0 mph 36.0 mph 87 % 0.00 in 0 W/m2
22:17 55.9 °F 51.8 °F 28.91 in SSW 20.0 mph 33.0 mph 86 % 0.00 in 0 W/m2
22:32 56.1 °F 52.0 °F 28.90 in SSW 17.0 mph 25.0 mph 86 % 0.00 in 0 W/m2
22:38 55.9 °F 51.8 °F 28.90 in SSW 24.0 mph 35.0 mph 86 % 0.00 in 0 W/m2
22:43 55.9 °F 51.8 °F 28.90 in SSW 20.0 mph 32.0 mph 86 % 0.00 in 0 W/m2
22:53 55.9 °F 51.8 °F 28.90 in SSW 21.0 mph 31.0 mph 86 % 0.00 in 0 W/m2
22:58 55.9 °F 51.8 °F 28.90 in SSW 20.0 mph 32.0 mph 86 % 0.00 in 0 W/m2
23:08 56.1 °F 51.7 °F 28.89 in SSW 25.0 mph 37.0 mph 85 % 0.00 in 0 W/m2
23:13 56.1 °F 51.4 °F 28.89 in SW 22.0 mph 31.0 mph 84 % 0.00 in 0 W/m2
23:18 56.5 °F 51.4 °F 28.89 in SW 22.0 mph 33.0 mph 83 % 0.00 in 0 W/m2
23:23 56.5 °F 51.4 °F 28.89 in SW 25.0 mph 37.0 mph 83 % 0.00 in 0 W/m2
23:25 56.5 °F 51.4 °F 28.89 in SSW 23.0 mph 32.0 mph 83 % 0.00 in 0 W/m2
23:30 56.5 °F 51.4 °F 28.89 in SW 27.0 mph 42.0 mph 83 % 0.00 in 0 W/m2
23:35 56.1 °F 51.4 °F 28.88 in SSW 23.0 mph 47.0 mph 84 % 0.00 in 0 W/m2
23:40 55.8 °F 51.6 °F 28.89 in SSW 24.0 mph 37.0 mph 86 % 0.01 in 0 W/m2
23:45 55.6 °F 51.5 °F 28.89 in SSW 21.0 mph 34.0 mph 86 % 0.01 in 0 W/m2
23:50 55.8 °F 51.3 °F 28.89 in SSW 28.0 mph 42.0 mph 85 % 0.01 in 0 W/m2
Delerius-Weather
Compliments of Weather Underground - 1.75 mb

Data updates at regular intervals.